This is the latest recevied weather packets stored in our database for station/object OE-1066. If no packets are shown the sender has not sent any weather packets the latest 10 day(s).
| Time | Temp. | Humidity | Pressure | Rain* | Wind** | Luminosity | Snow |
|---|---|---|---|---|---|---|---|
| 1788603069 | 18.33° C | 73% | 1022.1 hPa | - | - | - | - |
| 1788601270 | 17.78° C | 74% | 1022.2 hPa | - | - | - | - |
| 1788599469 | 17.22° C | 76% | 1022.3 hPa | - | - | - | - |
| 1788597670 | 16.67° C | 80% | 1022.4 hPa | - | - | - | - |
| 1788595869 | 16.11° C | 81% | 1022.5 hPa | - | - | - | - |
| 1788594069 | 16.67° C | 74% | 1022.4 hPa | - | - | - | - |
| 1788592269 | 16.67° C | 72% | 1022.4 hPa | - | - | - | - |
| 1788590469 | 17.78° C | 66% | 1022.2 hPa | - | - | - | - |
| 1788588670 | 19.44° C | 67% | 1020.9 hPa | - | - | - | - |
| 1788552670 | 25° C | 51% | 1013.6 hPa | - | - | - | - |
| 1788549070 | 26.11° C | 48% | 1012.4 hPa | - | - | - | - |
| 1788545469 | 28.33° C | 42% | 1011 hPa | - | - | - | - |
| 1788541870 | 30.56° C | 34% | 1010.6 hPa | - | - | - | - |
| 1788538271 | 31.11° C | 32% | 1011.6 hPa | - | - | - | - |
| 1788531070 | 31.11° C | 34% | 1012.7 hPa | - | - | - | - |
| 1788527470 | 30° C | 36% | 1013.9 hPa | - | - | - | - |
| 1788523869 | 28.89° C | 38% | 1015.1 hPa | - | - | - | - |
| 1788522070 | 27.78° C | 40% | 1016.3 hPa | - | - | - | - |
| 1788520270 | 27.78° C | 40% | 1016.3 hPa | - | - | - | - |
| 1788516670 | 26.67° C | 43% | 1017.6 hPa | - | - | - | - |
| 1788514870 | 26.11° C | 44% | 1017.7 hPa | - | - | - | - |
| 1788513070 | 25.56° C | 44% | 1018.8 hPa | - | - | - | - |
| 1788509469 | 22.78° C | 56% | 1019.2 hPa | - | - | - | - |
| 1788507670 | 21.67° C | 61% | 1019.4 hPa | - | - | - | - |
| 1788505870 | 21.11° C | 64% | 1019.6 hPa | - | - | - | - |
* Rain since midnight (hover to see other rain measurements)
** Current wind speed in m/s (hover to see current wind gust speed)